Time;durP1;ratioP1;P1;durP2;ratioP2;P2;SDS_P1;SDS_P2;PMS_P1;PMS_P2;Temp;Humidity;BMP_temperature;BMP_pressure;BME280_temperature;BME280_humidity;BME280_pressure;Samples;Min_cycle;Max_cycle;Signal;HPM_P1;HPM_P2
2023/11/08 00:00:51;;;;;;;0.57;0.50;;;8.70;99.90;8.80;100194.00;;;;4905851;28;123218;-66
2023/11/08 00:03:17;;;;;;;0.80;0.30;;;8.80;99.90;8.80;100184.00;;;;4905121;28;103578;-66
2023/11/08 00:05:42;;;;;;;0.47;0.47;;;8.90;99.90;8.90;100187.00;;;;4903392;28;97131;-66
2023/11/08 00:08:09;;;;;;;0.50;0.37;;;8.90;99.90;9.00;100189.00;;;;4902081;28;92634;-66
2023/11/08 00:10:35;;;;;;;2.63;0.47;;;9.00;99.90;9.00;100182.00;;;;4907520;28;93866;-65
2023/11/08 00:13:01;;;;;;;0.50;0.30;;;9.10;99.90;9.10;100177.00;;;;4911839;28;92577;-65
2023/11/08 00:15:27;;;;;;;0.23;0.17;;;9.10;99.90;9.10;100182.00;;;;4908971;28;92807;-66
2023/11/08 00:17:53;;;;;;;0.43;0.43;;;9.10;99.90;9.20;100188.00;;;;4908292;28;92255;-66
2023/11/08 00:20:18;;;;;;;0.10;0.10;;;9.20;99.90;9.20;100178.00;;;;4902707;28;107674;-66
2023/11/08 00:22:44;;;;;;;0.23;0.23;;;9.30;99.90;9.20;100185.00;;;;4907990;28;116790;-65
2023/11/08 00:25:11;;;;;;;0.30;0.30;;;9.30;99.90;9.30;100171.00;;;;4892807;28;93537;-65
2023/11/08 00:27:37;;;;;;;0.20;0.20;;;9.30;99.90;9.30;100173.00;;;;4910987;28;92591;-65
2023/11/08 00:30:07;;;;;;;0.40;0.30;;;9.40;99.90;9.30;100177.00;;;;4906394;28;92875;-64
2023/11/08 00:32:33;;;;;;;0.33;0.33;;;9.40;99.90;9.30;100182.00;;;;4906673;28;94286;-68
2023/11/08 00:34:58;;;;;;;0.50;0.40;;;9.30;99.90;9.20;100177.00;;;;4889636;28;109332;-65
2023/11/08 00:37:25;;;;;;;0.30;0.30;;;9.30;99.90;9.20;100191.00;;;;4910815;28;92761;-66
2023/11/08 00:39:50;;;;;;;0.50;0.30;;;9.30;99.90;9.20;100190.00;;;;4907097;28;93221;-65
2023/11/08 00:42:16;;;;;;;0.83;0.70;;;9.30;99.90;9.20;100190.00;;;;4902258;28;122429;-65
2023/11/08 00:44:42;;;;;;;0.20;0.20;;;9.30;99.90;9.20;100188.00;;;;4904754;28;110503;-66
2023/11/08 00:47:08;;;;;;;0.27;0.27;;;9.20;99.90;9.20;100190.00;;;;4906147;28;102524;-67
2023/11/08 00:49:35;;;;;;;1.47;0.50;;;9.20;99.90;9.20;100191.00;;;;4907427;28;94176;-65
2023/11/08 00:52:00;;;;;;;0.17;0.17;;;9.20;99.90;9.20;100191.00;;;;4878469;28;100651;-66
2023/11/08 00:54:27;;;;;;;0.83;0.57;;;9.30;99.90;9.20;100189.00;;;;4907194;28;106805;-64
2023/11/08 00:56:53;;;;;;;0.10;0.10;;;9.30;99.90;9.20;100178.00;;;;4908422;28;92667;-65
2023/11/08 00:59:19;;;;;;;0.60;0.40;;;9.30;99.90;9.20;100183.00;;;;4906250;28;93003;-65
2023/11/08 01:01:45;;;;;;;0.73;0.60;;;10.40;99.90;9.20;100174.00;;;;4885341;28;92785;-65
2023/11/08 01:04:11;;;;;;;0.40;0.40;;;9.30;99.90;9.20;100181.00;;;;4890479;28;99602;-65
2023/11/08 01:06:38;;;;;;;0.20;0.20;;;9.30;99.90;9.20;100190.00;;;;4907048;28;92268;-65
2023/11/08 01:09:08;;;;;;;0.83;0.40;;;9.70;99.90;9.20;100187.00;;;;4909902;28;93802;-65
2023/11/08 01:11:35;;;;;;;0.27;0.27;;;9.40;99.90;9.20;100187.00;;;;4909279;28;92864;-65
2023/11/08 01:14:02;;;;;;;0.50;0.40;;;9.30;99.90;9.20;100192.00;;;;4910740;28;93730;-68
2023/11/08 01:16:31;;;;;;;0.33;0.30;;;9.20;99.90;9.10;100191.00;;;;4911731;28;92716;-68
2023/11/08 01:18:57;;;;;;;0.73;0.73;;;9.20;99.90;9.10;100187.00;;;;4874365;28;92931;-66
2023/11/08 01:21:23;;;;;;;0.33;0.33;;;9.30;99.90;9.10;100182.00;;;;4889642;28;96326;-67
2023/11/08 01:23:49;;;;;;;0.50;0.30;;;9.20;99.90;9.00;100181.00;;;;4890425;28;92899;-67
2023/11/08 01:26:15;;;;;;;0.50;0.43;;;9.10;99.90;9.00;100183.00;;;;4895103;28;94231;-66
2023/11/08 01:28:41;;;;;;;0.73;0.20;;;9.10;99.90;9.00;100172.00;;;;4873758;28;92900;-67
2023/11/08 01:31:08;;;;;;;0.20;0.20;;;9.10;99.90;9.00;100181.00;;;;4892618;28;122828;-66
2023/11/08 01:33:34;;;;;;;3.23;0.40;;;9.00;99.90;9.00;100180.00;;;;4885703;28;93455;-66
2023/11/08 01:36:00;;;;;;;0.20;0.20;;;9.10;99.90;8.90;100182.00;;;;4886570;28;92823;-68
2023/11/08 01:38:25;;;;;;;0.20;0.20;;;9.00;99.90;9.00;100186.00;;;;4874549;28;95123;-67
2023/11/08 01:40:52;;;;;;;0.70;0.47;;;9.00;99.90;9.00;100171.00;;;;4893835;28;94733;-66
2023/11/08 01:43:28;;;;;;;0.20;0.20;;;9.10;99.90;8.90;100173.00;;;;4891464;28;92919;-65
2023/11/08 01:46:11;;;;;;;0.40;0.40;;;9.00;99.90;8.90;100183.00;;;;4892553;28;93530;-67
2023/11/08 01:48:39;;;;;;;0.50;0.20;;;9.00;99.90;8.90;100178.00;;;;4888600;28;107634;-68
2023/11/08 01:51:06;;;;;;;0.30;0.30;;;9.10;99.90;8.90;100186.00;;;;4890368;28;92982;-66
2023/11/08 01:53:37;;;;;;;0.87;0.57;;;9.00;99.90;9.00;100181.00;;;;4872945;28;110962;-65
2023/11/08 01:56:05;;;;;;;1.10;0.20;;;9.00;99.90;9.00;100179.00;;;;4874179;28;92090;-67
2023/11/08 01:58:34;;;;;;;0.37;0.13;;;9.00;99.90;9.00;100180.00;;;;4896187;28;93216;-66
2023/11/08 02:01:08;;;;;;;0.10;0.10;;;9.10;99.90;9.10;100182.00;;;;4884333;28;94265;-66
2023/11/08 02:03:36;;;;;;;0.10;0.10;;;9.10;99.90;9.10;100170.00;;;;4884441;28;93937;-66
2023/11/08 02:06:03;;;;;;;0.17;0.13;;;9.10;99.90;9.10;100168.00;;;;4889667;28;92547;-67
2023/11/08 02:08:30;;;;;;;0.27;0.23;;;9.20;99.90;9.20;100176.00;;;;4885121;28;94934;-67
2023/11/08 02:10:59;;;;;;;0.33;0.30;;;9.30;99.90;9.20;100169.00;;;;4890557;28;92713;-67
2023/11/08 02:13:26;;;;;;;1.03;0.50;;;9.80;99.90;9.30;100171.00;;;;4889575;28;92406;-66
2023/11/08 02:15:55;;;;;;;2.17;0.50;;;9.30;99.90;9.30;100178.00;;;;4889684;28;93847;-66
2023/11/08 02:18:21;;;;;;;1.13;0.60;;;9.30;99.90;9.30;100157.00;;;;4888683;28;122486;-66
2023/11/08 02:20:48;;;;;;;2.10;0.37;;;9.40;99.90;9.30;100178.00;;;;4889632;28;92758;-66
2023/11/08 02:23:14;;;;;;;0.23;0.23;;;9.40;99.90;9.40;100162.00;;;;4890373;28;92673;-65
2023/11/08 02:25:42;;;;;;;0.33;0.33;;;9.40;99.90;9.40;100166.00;;;;4892682;28;92668;-66
2023/11/08 02:28:08;;;;;;;0.63;0.53;;;9.40;99.90;9.40;100161.00;;;;4891145;28;93974;-66
2023/11/08 02:30:33;;;;;;;0.43;0.40;;;9.50;99.90;9.40;100173.00;;;;4893953;28;121364;-66
2023/11/08 02:32:59;;;;;;;0.40;0.20;;;9.40;99.90;9.40;100176.00;;;;4888956;28;109805;-66
2023/11/08 02:35:25;;;;;;;0.30;0.30;;;9.50;99.90;9.50;100172.00;;;;4890631;28;92927;-66
2023/11/08 02:37:51;;;;;;;3.23;0.67;;;9.50;99.90;9.50;100182.00;;;;4872879;28;92925;-66
2023/11/08 02:40:17;;;;;;;1.27;0.40;;;9.50;99.90;9.50;100178.00;;;;4892604;28;122007;-64
2023/11/08 02:42:48;;;;;;;1.10;0.40;;;9.50;99.90;9.50;100182.00;;;;4893585;28;92721;-66
2023/11/08 02:45:13;;;;;;;0.30;0.30;;;9.50;99.90;9.50;100180.00;;;;4887380;28;92066;-66
2023/11/08 02:47:40;;;;;;;0.40;0.40;;;9.50;99.90;9.50;100174.00;;;;4872173;28;93262;-66
2023/11/08 02:50:07;;;;;;;1.00;0.50;;;9.50;99.90;9.40;100176.00;;;;4889262;28;92940;-67
2023/11/08 02:52:33;;;;;;;1.23;0.40;;;9.50;99.90;9.40;100184.00;;;;4873642;28;94034;-65
2023/11/08 02:54:59;;;;;;;1.27;0.57;;;9.50;99.90;9.40;100178.00;;;;4888749;28;109046;-66
2023/11/08 02:57:26;;;;;;;0.73;0.40;;;9.40;99.90;9.30;100186.00;;;;4894497;28;95705;-67
2023/11/08 02:59:52;;;;;;;1.07;0.50;;;9.40;99.90;9.30;100177.00;;;;4889503;28;93383;-66
2023/11/08 03:02:20;;;;;;;3.00;0.60;;;9.40;99.90;9.30;100191.00;;;;4890209;28;92506;-66
2023/11/08 03:04:46;;;;;;;0.40;0.40;;;9.40;99.90;9.30;100180.00;;;;4874024;28;92642;-66
2023/11/08 03:07:12;;;;;;;1.03;0.70;;;9.30;99.90;9.20;100178.00;;;;4887971;28;93067;-66
2023/11/08 03:09:39;;;;;;;0.57;0.57;;;9.30;99.90;9.20;100172.00;;;;4890187;28;92190;-65
2023/11/08 03:12:05;;;;;;;0.57;0.40;;;9.30;99.90;9.10;100187.00;;;;4890078;28;92765;-66
2023/11/08 03:14:30;;;;;;;0.83;0.50;;;8.70;99.90;9.20;100175.00;;;;4890038;28;92812;-65
2023/11/08 03:16:58;;;;;;;0.27;0.20;;;9.20;99.90;9.20;100188.00;;;;4877596;28;122187;-65
2023/11/08 03:19:23;;;;;;;1.07;0.30;;;9.20;99.90;9.20;100175.00;;;;4888676;28;94437;-66
2023/11/08 03:21:50;;;;;;;2.87;0.93;;;9.70;99.90;9.20;100179.00;;;;4906081;28;94256;-65
2023/11/08 03:24:16;;;;;;;0.83;0.47;;;9.70;99.90;9.20;100185.00;;;;4912447;28;93804;-66
2023/11/08 03:26:46;;;;;;;0.37;0.33;;;9.20;99.90;9.20;100182.00;;;;4907036;28;123015;-66
2023/11/08 03:29:12;;;;;;;0.87;0.63;;;9.30;99.90;9.20;100184.00;;;;4911833;28;93094;-66
2023/11/08 03:31:38;;;;;;;0.67;0.43;;;9.30;99.90;9.10;100179.00;;;;4908920;28;93804;-67
2023/11/08 03:34:03;;;;;;;0.50;0.50;;;9.20;99.90;9.10;100176.00;;;;4909980;28;91766;-67
2023/11/08 03:36:30;;;;;;;0.40;0.40;;;9.20;99.90;9.10;100184.00;;;;4912572;28;93670;-66
2023/11/08 03:38:56;;;;;;;1.93;0.73;;;9.10;99.90;9.10;100179.00;;;;4905320;28;93328;-67
2023/11/08 03:41:25;;;;;;;5.30;0.80;;;9.10;99.90;9.10;100179.00;;;;4908913;28;93866;-66
2023/11/08 03:43:54;;;;;;;1.77;0.80;;;9.20;99.90;9.10;100187.00;;;;4909451;28;92679;-67
2023/11/08 03:46:22;;;;;;;0.57;0.57;;;9.20;99.90;9.10;100185.00;;;;4906896;28;94487;-67
2023/11/08 03:48:58;;;;;;;1.37;1.07;;;9.20;99.90;9.20;100190.00;;;;4907956;28;122606;-65
2023/11/08 03:51:27;;;;;;;0.60;0.60;;;9.20;99.90;9.20;100193.00;;;;4910442;28;92793;-66
2023/11/08 03:53:53;;;;;;;1.33;0.77;;;9.30;99.90;9.20;100197.00;;;;4911267;28;92970;-66
2023/11/08 03:56:19;;;;;;;1.23;0.60;;;9.30;99.90;9.30;100200.00;;;;4907165;28;122296;-66
2023/11/08 03:58:44;;;;;;;0.43;0.37;;;9.30;99.90;9.30;100199.00;;;;4907905;28;93148;-66
2023/11/08 04:01:10;;;;;;;1.43;0.87;;;9.30;99.90;9.30;100189.00;;;;4906405;28;110174;-67
2023/11/08 04:03:36;;;;;;;1.70;0.50;;;9.40;99.90;9.40;100192.00;;;;4907792;28;92987;-66
2023/11/08 04:06:02;;;;;;;0.37;0.23;;;9.40;99.90;9.40;100191.00;;;;4906906;28;96459;-68
2023/11/08 04:08:28;;;;;;;1.03;0.60;;;9.50;99.90;9.50;100203.00;;;;4907290;28;95100;-67
2023/11/08 04:10:54;;;;;;;0.67;0.40;;;9.50;99.90;9.50;100192.00;;;;4907569;28;92183;-66
2023/11/08 04:13:20;;;;;;;2.00;0.40;;;9.50;99.90;9.50;100205.00;;;;4905868;28;109169;-66
2023/11/08 04:15:46;;;;;;;0.53;0.53;;;9.60;99.90;9.50;100197.00;;;;4895673;28;97253;-67
2023/11/08 04:18:12;;;;;;;3.23;0.73;;;9.50;99.90;9.50;100203.00;;;;4893375;28;94044;-66
2023/11/08 04:20:38;;;;;;;0.97;0.87;;;9.60;99.90;9.50;100217.00;;;;4909256;28;92831;-65
2023/11/08 04:23:04;;;;;;;0.53;0.53;;;9.50;99.90;9.50;100197.00;;;;4908227;28;92107;-67
2023/11/08 04:25:30;;;;;;;0.60;0.40;;;9.60;99.90;9.60;100195.00;;;;4889651;28;93378;-67
2023/11/08 04:27:56;;;;;;;2.10;0.40;;;9.60;99.90;9.50;100201.00;;;;4910020;28;93763;-67
2023/11/08 04:30:22;;;;;;;0.23;0.23;;;9.60;99.90;9.60;100203.00;;;;4906203;28;94880;-65
2023/11/08 04:32:48;;;;;;;0.50;0.50;;;9.60;99.90;9.50;100196.00;;;;4908571;28;93084;-67
2023/11/08 04:35:17;;;;;;;5.40;1.17;;;9.60;99.90;9.60;100198.00;;;;4907276;28;93219;-66
2023/11/08 04:37:46;;;;;;;0.40;0.40;;;9.60;99.90;9.60;100190.00;;;;4911695;28;93056;-66
2023/11/08 04:40:12;;;;;;;0.30;0.30;;;9.60;99.90;9.60;100201.00;;;;4908178;28;113262;-65
2023/11/08 04:42:37;;;;;;;2.20;0.50;;;9.60;99.90;9.60;100197.00;;;;4910127;28;94216;-65
2023/11/08 04:45:03;;;;;;;0.23;0.20;;;9.60;99.90;9.60;100186.00;;;;4891084;28;122297;-65
2023/11/08 04:47:32;;;;;;;0.53;0.30;;;9.60;99.90;9.60;100191.00;;;;4910561;28;105561;-66
2023/11/08 04:49:58;;;;;;;1.30;0.50;;;9.60;99.90;9.60;100187.00;;;;4914557;28;104804;-65
2023/11/08 04:52:23;;;;;;;0.47;0.47;;;9.60;99.90;9.60;100191.00;;;;4901384;28;104870;-65
2023/11/08 04:54:50;;;;;;;3.60;0.30;;;9.80;99.90;9.50;100199.00;;;;4911781;28;123464;-67
2023/11/08 04:57:17;;;;;;;0.50;0.40;;;9.60;99.90;9.50;100198.00;;;;4911588;28;94760;-65
2023/11/08 04:59:47;;;;;;;0.90;0.73;;;9.60;99.90;9.50;100209.00;;;;4915324;28;92735;-65
2023/11/08 05:02:16;;;;;;;0.30;0.30;;;9.60;99.90;9.50;100200.00;;;;4914163;28;93145;-65
2023/11/08 05:04:45;;;;;;;0.60;0.50;;;9.50;99.90;9.50;100195.00;;;;4919424;28;93744;-65
2023/11/08 05:07:12;;;;;;;1.87;0.93;;;9.50;99.90;9.50;100203.00;;;;4919032;28;92967;-67
2023/11/08 05:09:40;;;;;;;1.60;0.40;;;9.50;99.90;9.50;100212.00;;;;4897240;28;92818;-66
2023/11/08 05:12:07;;;;;;;0.50;0.50;;;9.50;99.90;9.50;100197.00;;;;4913977;28;92223;-66
2023/11/08 05:14:33;;;;;;;0.33;0.33;;;9.50;99.90;9.50;100199.00;;;;4900789;28;93343;-66
2023/11/08 05:17:01;;;;;;;0.40;0.40;;;9.50;99.90;9.50;100200.00;;;;4913727;28;101901;-67
2023/11/08 05:19:27;;;;;;;1.50;0.67;;;10.20;99.90;9.40;100187.00;;;;4900191;28;93813;-66
2023/11/08 05:21:53;;;;;;;0.43;0.40;;;9.50;99.90;9.40;100191.00;;;;4893584;28;93205;-66
2023/11/08 05:24:21;;;;;;;0.40;0.40;;;9.40;99.90;9.40;100196.00;;;;4906259;28;94325;-66
2023/11/08 05:26:48;;;;;;;0.87;0.53;;;9.50;99.90;9.30;100204.00;;;;4913510;28;93045;-67
2023/11/08 05:29:25;;;;;;;0.47;0.40;;;9.40;99.90;9.30;100197.00;;;;4911293;28;92791;-66
2023/11/08 05:31:51;;;;;;;0.63;0.40;;;9.40;99.90;9.30;100204.00;;;;4911777;28;92941;-65
2023/11/08 05:34:16;;;;;;;0.50;0.50;;;9.40;99.90;9.30;100209.00;;;;4911830;28;93001;-66
2023/11/08 05:36:42;;;;;;;0.53;0.40;;;9.30;99.90;9.20;100204.00;;;;4913699;28;121873;-66
2023/11/08 05:39:08;;;;;;;1.03;0.53;;;9.30;99.90;9.20;100208.00;;;;4911292;28;109780;-66
2023/11/08 05:41:34;;;;;;;0.83;0.57;;;9.30;99.90;9.10;100211.00;;;;4915269;28;107915;-66
2023/11/08 05:44:00;;;;;;;0.33;0.33;;;9.20;99.90;9.10;100201.00;;;;4898659;28;95604;-67
2023/11/08 05:46:27;;;;;;;4.03;0.70;;;9.20;99.90;9.10;100205.00;;;;4914914;28;93781;-66
2023/11/08 05:48:55;;;;;;;0.40;0.37;;;9.10;99.90;9.00;100213.00;;;;4916293;28;92874;-66
2023/11/08 05:51:22;;;;;;;4.80;0.50;;;9.10;99.90;9.00;100207.00;;;;4915486;28;94520;-67
2023/11/08 05:53:48;;;;;;;1.03;0.50;;;8.60;99.90;9.00;100204.00;;;;4914607;28;93076;-67
2023/11/08 05:56:13;;;;;;;5.90;1.00;;;9.10;99.90;9.10;100209.00;;;;4915646;28;92737;-67
2023/11/08 05:58:40;;;;;;;0.60;0.53;;;9.10;99.90;9.00;100210.00;;;;4916110;28;109808;-66
2023/11/08 06:01:06;;;;;;;0.30;0.30;;;9.10;99.90;9.10;100217.00;;;;4913136;28;92837;-66
2023/11/08 06:03:32;;;;;;;0.70;0.50;;;9.20;99.90;9.10;100219.00;;;;4908829;28;93620;-66
2023/11/08 06:05:58;;;;;;;0.53;0.53;;;9.20;99.90;9.10;100228.00;;;;4906657;28;123565;-66
2023/11/08 06:08:24;;;;;;;0.37;0.20;;;9.20;99.90;9.10;100229.00;;;;4908224;28;93954;-66
2023/11/08 06:10:50;;;;;;;1.60;0.50;;;9.70;99.90;9.10;100234.00;;;;4900036;28;92592;-66
2023/11/08 06:13:16;;;;;;;1.13;0.60;;;9.20;99.90;9.10;100233.00;;;;4905040;28;113390;-66
2023/11/08 06:15:42;;;;;;;2.40;0.97;;;9.20;99.90;9.20;100239.00;;;;4910040;28;122108;-66
2023/11/08 06:18:09;;;;;;;0.50;0.40;;;9.20;99.90;9.20;100230.00;;;;4909305;28;92872;-66
2023/11/08 06:20:35;;;;;;;1.37;0.53;;;9.30;99.90;9.20;100235.00;;;;4906833;28;92828;-68
2023/11/08 06:23:02;;;;;;;0.40;0.40;;;9.30;99.90;9.20;100234.00;;;;4910803;28;92964;-67
2023/11/08 06:25:32;;;;;;;0.50;0.50;;;9.30;99.90;9.20;100241.00;;;;4892527;28;95459;-65
2023/11/08 06:28:00;;;;;;;1.20;0.53;;;9.30;99.90;9.30;100243.00;;;;4912589;28;92752;-66
2023/11/08 06:30:25;;;;;;;1.80;0.77;;;9.30;99.90;9.30;100243.00;;;;4911980;28;93602;-66
2023/11/08 06:32:51;;;;;;;1.60;1.13;;;9.30;99.90;9.30;100239.00;;;;4904271;28;93922;-66
2023/11/08 06:35:17;;;;;;;0.53;0.47;;;10.60;99.90;9.30;100244.00;;;;4880633;28;111436;-66
2023/11/08 06:37:43;;;;;;;2.40;0.90;;;9.40;99.90;9.40;100248.00;;;;4898772;28;92738;-67
2023/11/08 06:40:10;;;;;;;6.40;1.07;;;10.10;99.90;9.40;100243.00;;;;4910505;28;93371;-67
2023/11/08 06:42:37;;;;;;;0.27;0.27;;;9.70;99.90;9.30;100247.00;;;;4913130;28;93707;-67
2023/11/08 06:45:04;;;;;;;0.30;0.30;;;9.40;99.90;9.30;100253.00;;;;4908484;28;93861;-65
2023/11/08 06:47:30;;;;;;;0.60;0.60;;;9.40;99.90;9.20;100251.00;;;;4910395;28;92518;-65
2023/11/08 06:49:57;;;;;;;0.43;0.40;;;9.40;99.90;9.10;100245.00;;;;4889376;28;92563;-65
2023/11/08 06:52:26;;;;;;;0.40;0.40;;;9.20;99.90;9.10;100254.00;;;;4904062;28;93866;-67
2023/11/08 06:54:52;;;;;;;0.57;0.37;;;9.10;99.90;9.10;100259.00;;;;4911573;28;93166;-65
2023/11/08 06:57:18;;;;;;;0.43;0.43;;;9.10;99.90;9.10;100261.00;;;;4895341;28;95410;-67
2023/11/08 06:59:45;;;;;;;1.90;0.80;;;9.10;99.90;9.10;100255.00;;;;4916098;28;92833;-67
2023/11/08 07:02:11;;;;;;;0.83;0.50;;;9.10;99.90;9.10;100273.00;;;;4910455;28;92980;-65
2023/11/08 07:04:38;;;;;;;0.67;0.60;;;9.20;99.90;9.20;100273.00;;;;4913403;28;93788;-66
2023/11/08 07:07:04;;;;;;;0.23;0.23;;;9.30;99.90;9.20;100268.00;;;;4914067;28;92814;-66
2023/11/08 07:09:30;;;;;;;0.30;0.30;;;9.30;99.90;9.30;100277.00;;;;4897548;28;92766;-65
2023/11/08 07:11:57;;;;;;;0.20;0.20;;;9.30;99.90;9.30;100279.00;;;;4911875;28;93269;-65
2023/11/08 07:14:23;;;;;;;0.50;0.30;;;9.40;99.90;9.40;100282.00;;;;4909374;28;93778;-66
2023/11/08 07:16:49;;;;;;;0.43;0.43;;;9.40;99.90;9.50;100270.00;;;;4909023;28;92789;-66
2023/11/08 07:19:15;;;;;;;0.20;0.20;;;9.50;99.90;9.50;100272.00;;;;4911406;28;93642;-66
2023/11/08 07:21:41;;;;;;;1.07;0.30;;;9.60;99.90;9.50;100284.00;;;;4907808;28;125068;-67
2023/11/08 07:24:08;;;;;;;0.97;0.40;;;9.60;99.90;9.50;100290.00;;;;4908265;28;124225;-67
2023/11/08 07:26:34;;;;;;;0.30;0.30;;;9.60;99.90;9.50;100286.00;;;;4891995;28;95110;-66
2023/11/08 07:29:03;;;;;;;0.93;0.60;;;9.60;99.90;9.50;100291.00;;;;4910234;28;92909;-65
2023/11/08 07:31:33;;;;;;;0.40;0.40;;;9.60;99.90;9.50;100288.00;;;;4906363;28;93413;-66
2023/11/08 07:33:59;;;;;;;1.73;0.50;;;9.50;99.90;9.50;100288.00;;;;4910909;28;93458;-66
2023/11/08 07:36:26;;;;;;;2.80;1.03;;;9.60;99.90;9.60;100287.00;;;;4909186;28;93085;-67
2023/11/08 07:38:52;;;;;;;0.33;0.30;;;9.60;99.90;9.50;100288.00;;;;4912213;28;91882;-67
2023/11/08 07:41:18;;;;;;;0.70;0.53;;;9.90;99.90;9.50;100294.00;;;;4908092;28;101819;-66
2023/11/08 07:43:44;;;;;;;0.63;0.53;;;9.60;99.90;9.50;100281.00;;;;4910001;28;93663;-67
2023/11/08 07:46:10;;;;;;;0.37;0.30;;;9.60;99.90;9.50;100297.00;;;;4905780;28;109618;-66
2023/11/08 07:48:36;;;;;;;0.47;0.47;;;9.60;99.90;9.60;100297.00;;;;4907652;28;92627;-66
2023/11/08 07:51:03;;;;;;;0.23;0.23;;;9.60;99.90;9.60;100301.00;;;;4909954;28;111757;-67
2023/11/08 07:53:30;;;;;;;0.40;0.30;;;9.60;99.90;9.60;100301.00;;;;4889931;28;94519;-67
2023/11/08 07:55:55;;;;;;;0.20;0.20;;;9.60;99.90;9.60;100314.00;;;;4910716;28;92821;-67
2023/11/08 07:58:22;;;;;;;0.23;0.23;;;9.60;99.90;9.60;100301.00;;;;4907926;28;92997;-67
2023/11/08 08:00:47;;;;;;;0.47;0.47;;;9.70;99.90;9.60;100303.00;;;;4891299;28;94372;-67
2023/11/08 08:03:14;;;;;;;0.20;0.20;;;9.70;99.90;9.60;100314.00;;;;4909146;28;92968;-66
2023/11/08 08:05:44;;;;;;;0.23;0.23;;;9.70;99.90;9.60;100302.00;;;;4914384;28;92738;-66
2023/11/08 08:08:12;;;;;;;2.10;0.63;;;9.60;99.90;9.60;100302.00;;;;4908173;28;93483;-66
2023/11/08 08:10:37;;;;;;;0.20;0.20;;;9.60;99.90;9.60;100302.00;;;;4904923;28;95029;-68
2023/11/08 08:13:04;;;;;;;0.30;0.30;;;9.60;99.90;9.60;100307.00;;;;4906877;28;93153;-65
2023/11/08 08:15:30;;;;;;;0.83;0.57;;;9.60;99.90;9.70;100311.00;;;;4909392;28;92564;-67
2023/11/08 08:17:58;;;;;;;0.43;0.43;;;9.70;99.90;9.70;100307.00;;;;4908891;28;92809;-66
2023/11/08 08:20:25;;;;;;;0.30;0.30;;;9.70;99.90;9.70;100312.00;;;;4908691;28;94082;-67
2023/11/08 08:22:52;;;;;;;1.53;0.40;;;9.70;99.90;9.60;100301.00;;;;4905417;28;93768;-67
2023/11/08 08:25:18;;;;;;;2.43;0.53;;;9.70;99.90;9.70;100309.00;;;;4912140;28;93098;-66
2023/11/08 08:27:44;;;;;;;0.70;0.30;;;9.70;99.90;9.70;100310.00;;;;4907256;28;92141;-67
2023/11/08 08:30:14;;;;;;;0.60;0.20;;;9.70;99.90;9.70;100316.00;;;;4905839;28;93611;-67
2023/11/08 08:32:44;;;;;;;0.93;0.20;;;9.70;99.90;9.70;100301.00;;;;4908310;28;93690;-67
2023/11/08 08:35:10;;;;;;;1.33;0.20;;;9.80;99.90;9.80;100311.00;;;;4906278;28;94162;-67
2023/11/08 08:37:36;;;;;;;0.33;0.27;;;9.80;99.90;9.90;100321.00;;;;4907678;28;92936;-68
2023/11/08 08:40:10;;;;;;;0.63;0.37;;;9.90;99.90;10.00;100320.00;;;;4894169;28;94728;-68
2023/11/08 08:42:40;;;;;;;3.10;0.37;;;9.90;99.90;10.10;100314.00;;;;4907648;28;93660;-65
2023/11/08 08:45:10;;;;;;;2.23;0.50;;;10.10;99.90;10.20;100324.00;;;;4905023;28;92875;-65
2023/11/08 08:47:39;;;;;;;0.63;0.40;;;10.20;99.90;10.30;100331.00;;;;4906598;28;92786;-65
2023/11/08 08:50:11;;;;;;;3.07;0.53;;;10.30;99.90;10.40;100333.00;;;;4905695;28;115347;-65
2023/11/08 08:52:38;;;;;;;0.83;0.50;;;10.30;99.90;10.40;100331.00;;;;4905891;28;93822;-65
2023/11/08 08:55:04;;;;;;;0.73;0.20;;;10.40;99.90;10.50;100346.00;;;;4906120;28;93031;-66
2023/11/08 08:57:30;;;;;;;2.47;0.27;;;10.50;99.90;10.60;100343.00;;;;4907208;28;92814;-67
2023/11/08 08:59:56;;;;;;;0.43;0.30;;;10.60;99.90;10.60;100350.00;;;;4910193;28;102437;-68
2023/11/08 09:02:23;;;;;;;1.47;0.30;;;10.60;99.90;10.60;100345.00;;;;4911040;28;94274;-67
2023/11/08 09:04:50;;;;;;;1.67;0.50;;;10.70;99.90;10.70;100350.00;;;;4906215;28;92917;-65
2023/11/08 09:07:15;;;;;;;0.50;0.37;;;10.70;99.90;10.70;100344.00;;;;4906658;28;93076;-66
2023/11/08 09:09:41;;;;;;;0.53;0.20;;;10.70;99.90;10.80;100347.00;;;;4907673;28;122561;-66
2023/11/08 09:12:07;;;;;;;0.30;0.30;;;10.80;99.90;10.90;100353.00;;;;4905631;28;124151;-67
2023/11/08 09:14:33;;;;;;;0.30;0.20;;;10.90;99.90;10.90;100344.00;;;;4907394;28;92914;-65
2023/11/08 09:16:59;;;;;;;4.40;0.50;;;10.90;99.90;11.00;100357.00;;;;4911567;28;99022;-65
2023/11/08 09:19:26;;;;;;;0.47;0.40;;;11.00;99.90;11.00;100357.00;;;;4904386;28;93826;-66
2023/11/08 09:21:51;;;;;;;0.63;0.40;;;11.00;99.90;11.10;100357.00;;;;4906668;28;92831;-66
2023/11/08 09:24:17;;;;;;;0.87;0.40;;;11.10;99.90;11.20;100363.00;;;;4901821;28;111119;-66
2023/11/08 09:26:45;;;;;;;0.50;0.50;;;11.20;99.90;11.30;100371.00;;;;4905174;28;108285;-66
2023/11/08 09:29:12;;;;;;;0.87;0.40;;;11.30;99.90;11.30;100371.00;;;;4903752;28;94359;-66
2023/11/08 09:31:38;;;;;;;0.30;0.30;;;11.30;99.90;11.30;100364.00;;;;4903048;28;93734;-66
2023/11/08 09:34:04;;;;;;;0.83;0.43;;;11.30;99.90;11.20;100370.00;;;;4905156;28;111296;-64
2023/11/08 09:36:30;;;;;;;0.77;0.50;;;11.30;99.90;11.20;100377.00;;;;4912033;28;93062;-66
2023/11/08 09:38:58;;;;;;;0.40;0.40;;;11.20;99.90;11.20;100377.00;;;;4896866;28;95142;-66
2023/11/08 09:41:24;;;;;;;0.47;0.47;;;11.20;99.90;11.20;100379.00;;;;4909230;28;93857;-65
2023/11/08 09:43:52;;;;;;;0.63;0.30;;;11.20;99.90;11.20;100373.00;;;;4911561;28;98860;-64
2023/11/08 09:46:18;;;;;;;0.63;0.57;;;11.20;99.90;11.10;100373.00;;;;4911310;28;92994;-64
2023/11/08 09:48:45;;;;;;;1.03;0.63;;;11.20;99.90;11.20;100374.00;;;;4889987;28;94069;-65
2023/11/08 09:51:15;;;;;;;1.33;0.63;;;11.20;99.90;11.20;100383.00;;;;4885793;28;93454;-64
2023/11/08 09:53:45;;;;;;;0.30;0.30;;;11.20;99.90;11.20;100369.00;;;;4899999;28;92986;-66
2023/11/08 09:56:12;;;;;;;0.87;0.43;;;11.20;99.90;11.20;100370.00;;;;4896443;28;92796;-66
2023/11/08 09:58:45;;;;;;;3.60;0.27;;;11.20;99.90;11.20;100367.00;;;;4911940;28;101644;-66
2023/11/08 10:01:18;;;;;;;0.60;0.37;;;11.20;99.90;11.30;100368.00;;;;4907929;28;93970;-65
2023/11/08 10:03:46;;;;;;;0.33;0.33;;;11.20;99.90;11.40;100366.00;;;;4894248;28;110409;-66
2023/11/08 10:06:12;;;;;;;0.30;0.30;;;11.40;99.90;11.50;100355.00;;;;4895424;28;92048;-66
2023/11/08 10:08:39;;;;;;;0.20;0.20;;;11.50;99.90;11.60;100361.00;;;;4911754;28;93537;-65
2023/11/08 10:11:06;;;;;;;0.47;0.47;;;11.60;99.90;11.70;100367.00;;;;4912455;28;112206;-66
2023/11/08 10:13:52;;;;;;;1.50;0.63;;;11.60;99.90;11.70;100353.00;;;;4911836;28;98006;-65
2023/11/08 10:16:19;;;;;;;1.20;0.40;;;11.70;99.90;11.70;100350.00;;;;4913490;28;93428;-67
2023/11/08 10:18:57;;;;;;;0.70;0.63;;;11.70;99.90;11.70;100362.00;;;;4902045;28;94450;-66
2023/11/08 10:21:26;;;;;;;0.67;0.57;;;11.70;99.90;11.70;100356.00;;;;4909314;28;92902;-67
2023/11/08 10:23:55;;;;;;;0.30;0.30;;;11.70;99.90;11.70;100356.00;;;;4911836;28;93021;-67
2023/11/08 10:26:31;;;;;;;0.60;0.47;;;11.70;99.90;11.70;100362.00;;;;4907572;28;93923;-67
2023/11/08 10:29:03;;;;;;;1.03;0.70;;;11.70;99.90;11.70;100351.00;;;;4912170;28;93125;-66
2023/11/08 10:31:42;;;;;;;0.83;0.77;;;11.70;99.90;11.70;100364.00;;;;4908608;28;92152;-66
2023/11/08 10:34:13;;;;;;;0.20;0.20;;;11.70;99.90;11.70;100362.00;;;;4911585;28;92841;-66
2023/11/08 10:36:39;;;;;;;0.33;0.30;;;11.70;99.90;11.70;100355.00;;;;4906201;28;94300;-67
2023/11/08 10:39:13;;;;;;;2.20;0.70;;;11.70;99.90;11.70;100355.00;;;;4907675;28;94566;-66
2023/11/08 10:41:42;;;;;;;1.27;0.30;;;11.70;99.90;11.80;100350.00;;;;4908764;28;94028;-67
2023/11/08 10:44:22;;;;;;;0.37;0.37;;;12.90;99.90;11.80;100358.00;;;;4910447;28;92865;-66
2023/11/08 10:47:00;;;;;;;4.53;0.50;;;11.80;99.90;11.80;100353.00;;;;4909685;28;92935;-67
2023/11/08 10:49:26;;;;;;;0.67;0.67;;;11.80;99.90;11.70;100351.00;;;;4909290;28;93642;-66
2023/11/08 10:51:53;;;;;;;0.43;0.40;;;11.70;99.90;11.70;100350.00;;;;4908894;28;122375;-66
2023/11/08 10:54:19;;;;;;;3.40;0.57;;;11.70;99.90;11.70;100347.00;;;;4909975;28;92888;-67
2023/11/08 10:56:50;;;;;;;0.67;0.60;;;11.70;99.90;11.70;100347.00;;;;4912603;28;92316;-67